Time;durP1;ratioP1;P1;durP2;ratioP2;P2;SDS_P1;SDS_P2;PMS_P1;PMS_P2;Temp;Humidity;BMP_temperature;BMP_pressure;BME280_temperature;BME280_humidity;BME280_pressure;Samples;Min_cycle;Max_cycle;Signal;HPM_P1;HPM_P2
2023/08/20 00:00:44;;;;;;;;;;;15.00;99.90;;;;;;5073812;28;20370;-78
2023/08/20 00:03:11;;;;;;;;;;;15.00;99.90;;;;;;5079549;28;19920;-78
2023/08/20 00:05:37;;;;;;;;;;;14.90;99.90;;;;;;5069487;28;19924;-77
2023/08/20 00:08:03;;;;;;;;;;;14.90;99.90;;;;;;5085283;28;19916;-77
2023/08/20 00:10:29;;;;;;;;;;;14.90;99.90;;;;;;5071895;28;19916;-77
2023/08/20 00:12:55;;;;;;;;;;;14.80;99.90;;;;;;5079111;28;19969;-77
2023/08/20 00:15:26;;;;;;;;;;;14.80;99.90;;;;;;5057895;28;19920;-77
2023/08/20 00:17:52;;;;;;;;;;;14.80;99.90;;;;;;5071886;28;19927;-76
2023/08/20 00:20:18;;;;;;;;;;;14.70;99.90;;;;;;5066495;28;19926;-77
2023/08/20 00:22:45;;;;;;;;;;;14.70;99.90;;;;;;5074267;28;19924;-78
2023/08/20 00:25:13;;;;;;;;;;;14.60;99.90;;;;;;5086291;28;19920;-77
2023/08/20 00:27:39;;;;;;;;;;;14.60;99.90;;;;;;5077210;28;19920;-77
2023/08/20 00:30:06;;;;;;;;;;;14.50;99.90;;;;;;5084556;28;20369;-79
2023/08/20 00:32:32;;;;;;;;;;;14.50;99.90;;;;;;5073176;28;19919;-77
2023/08/20 00:34:57;;;;;;;;;;;14.40;99.90;;;;;;5087776;28;19977;-78
2023/08/20 00:37:23;;;;;;;;;;;14.40;99.90;;;;;;5075264;28;19919;-78
2023/08/20 00:39:48;;;;;;;;;;;14.40;99.90;;;;;;5073547;28;20369;-78
2023/08/20 00:42:14;;;;;;;;;;;14.30;99.90;;;;;;5068744;28;19924;-78
2023/08/20 00:44:41;;;;;;;;;;;14.30;99.90;;;;;;5072280;28;19927;-78
2023/08/20 00:47:07;;;;;;;;;;;14.30;99.90;;;;;;5074399;28;20007;-79
2023/08/20 00:49:33;;;;;;;;;;;14.20;99.90;;;;;;5072401;28;19923;-78
2023/08/20 00:51:59;;;;;;;;;;;14.20;99.90;;;;;;5076933;28;19920;-78
2023/08/20 00:54:25;;;;;;;;;;;14.20;99.90;;;;;;5074885;28;19919;-79
2023/08/20 00:56:51;;;;;;;;;;;14.20;99.90;;;;;;5083140;28;20563;-81
2023/08/20 00:59:17;;;;;;;;;;;14.20;99.90;;;;;;5072326;28;19950;-81
2023/08/20 01:01:43;;;;;;;;;;;14.10;99.90;;;;;;5073592;28;19930;-80
2023/08/20 01:04:08;;;;;;;;;;;14.10;99.90;;;;;;5075949;28;19948;-80
2023/08/20 01:06:37;;;;;;;;;;;14.10;99.90;;;;;;5070846;28;19966;-78
2023/08/20 01:09:23;;;;;;;;;;;14.10;99.90;;;;;;5087838;28;19916;-78
2023/08/20 01:11:52;;;;;;;;;;;14.10;99.90;;;;;;5071081;28;19924;-78
2023/08/20 01:14:17;;;;;;;;;;;14.00;99.90;;;;;;5070439;28;20011;-78
2023/08/20 01:16:44;;;;;;;;;;;14.00;99.90;;;;;;5067490;28;19998;-78
2023/08/20 01:19:11;;;;;;;;;;;14.00;99.90;;;;;;5052165;28;20012;-77
2023/08/20 01:21:45;;;;;;;;;;;14.00;99.90;;;;;;5069951;28;20007;-77
2023/08/20 01:24:25;;;;;;;;;;;14.00;99.90;;;;;;5070404;28;19916;-77
2023/08/20 01:26:54;;;;;;;;;;;13.90;99.90;;;;;;5067764;28;20626;-77
2023/08/20 01:29:20;;;;;;;;;;;13.90;99.90;;;;;;5070949;28;19981;-78
2023/08/20 01:31:46;;;;;;;;;;;13.90;99.90;;;;;;5053464;28;19974;-78
2023/08/20 01:34:13;;;;;;;;;;;13.90;99.90;;;;;;5086314;28;19923;-77
2023/08/20 01:36:38;;;;;;;;;;;13.90;99.90;;;;;;5077273;28;19920;-77
2023/08/20 01:39:04;;;;;;;;;;;13.80;99.90;;;;;;5076243;28;20284;-77
2023/08/20 01:41:30;;;;;;;;;;;13.90;99.90;;;;;;5034280;28;19924;-78
2023/08/20 01:43:56;;;;;;;;;;;13.80;99.90;;;;;;5037223;28;20327;-78
2023/08/20 01:46:21;;;;;;;;;;;13.80;99.90;;;;;;5056019;28;19916;-78
2023/08/20 01:48:47;;;;;;;;;;;13.80;99.90;;;;;;5070433;28;19932;-77
2023/08/20 01:51:13;;;;;;;;;;;13.80;99.90;;;;;;5070364;28;19924;-78
2023/08/20 01:53:38;;;;;;;;;;;13.80;99.90;;;;;;5053741;28;19920;-77
2023/08/20 01:56:04;;;;;;;;;;;13.80;99.90;;;;;;5066626;28;20339;-77
2023/08/20 01:58:30;;;;;;;;;;;13.80;99.90;;;;;;5070434;28;19920;-78
2023/08/20 02:00:56;;;;;;;;;;;13.80;99.90;;;;;;5084707;28;19955;-78
2023/08/20 02:03:22;;;;;;;;;;;13.80;99.90;;;;;;5075761;28;20356;-77
2023/08/20 02:05:47;;;;;;;;;;;13.80;99.90;;;;;;5076008;28;19919;-77
2023/08/20 02:08:13;;;;;;;;;;;13.80;99.90;;;;;;5054941;28;19924;-77
2023/08/20 02:10:38;;;;;;;;;;;13.80;99.90;;;;;;5049869;28;19927;-77
2023/08/20 02:13:05;;;;;;;;;;;13.80;99.90;;;;;;5055346;28;19962;-76
2023/08/20 02:15:30;;;;;;;;;;;13.80;99.90;;;;;;5069851;28;20019;-78
2023/08/20 02:17:56;;;;;;;;;;;13.80;99.90;;;;;;5070059;28;20011;-78
2023/08/20 02:20:22;;;;;;;;;;;13.90;99.90;;;;;;5069711;28;19923;-78
2023/08/20 02:22:49;;;;;;;;;;;13.90;99.90;;;;;;5070907;28;19935;-77
2023/08/20 02:25:15;;;;;;;;;;;13.90;99.90;;;;;;5072651;28;19948;-77
2023/08/20 02:27:40;;;;;;;;;;;13.90;99.90;;;;;;5071787;28;19963;-76
2023/08/20 02:30:06;;;;;;;;;;;14.00;99.90;;;;;;5073469;28;19927;-76
2023/08/20 02:32:33;;;;;;;;;;;13.90;99.90;;;;;;5071229;28;20525;-76
2023/08/20 02:34:58;;;;;;;;;;;14.00;99.90;;;;;;5057556;28;20256;-77
2023/08/20 02:37:24;;;;;;;;;;;14.00;99.90;;;;;;5073277;28;19924;-76
2023/08/20 02:39:49;;;;;;;;;;;14.00;99.90;;;;;;5076817;28;20015;-76
2023/08/20 02:42:15;;;;;;;;;;;13.90;99.90;;;;;;5072186;28;20347;-77
2023/08/20 02:44:41;;;;;;;;;;;13.90;99.90;;;;;;5073248;28;19915;-77
2023/08/20 02:47:06;;;;;;;;;;;13.80;99.90;;;;;;5089197;28;19944;-77
2023/08/20 02:49:32;;;;;;;;;;;13.80;99.90;;;;;;5064134;28;19969;-77
2023/08/20 02:51:57;;;;;;;;;;;13.80;99.90;;;;;;5059650;28;19927;-77
2023/08/20 02:54:23;;;;;;;;;;;13.80;99.90;;;;;;5073346;28;20709;-77
2023/08/20 02:56:48;;;;;;;;;;;13.80;99.90;;;;;;5072058;28;20399;-77
2023/08/20 02:59:14;;;;;;;;;;;13.80;99.90;;;;;;5072608;28;19930;-77
2023/08/20 03:01:40;;;;;;;;;;;13.90;99.90;;;;;;5072693;28;20015;-77
2023/08/20 03:04:05;;;;;;;;;;;13.90;99.90;;;;;;5074895;28;19924;-81
2023/08/20 03:06:31;;;;;;;;;;;14.00;99.90;;;;;;5056118;28;19927;-78
2023/08/20 03:08:56;;;;;;;;;;;14.00;99.90;;;;;;5070221;28;20415;-81
2023/08/20 03:11:22;;;;;;;;;;;14.00;99.90;;;;;;5056806;28;20327;-81
2023/08/20 03:13:47;;;;;;;;;;;14.00;99.90;;;;;;5085996;28;19923;-81
2023/08/20 03:16:13;;;;;;;;;;;13.90;99.90;;;;;;5056530;28;19924;-79
2023/08/20 03:18:38;;;;;;;;;;;13.90;99.90;;;;;;5074124;28;19996;-81
2023/08/20 03:21:04;;;;;;;;;;;13.90;99.90;;;;;;5073921;28;19920;-79
2023/08/20 03:23:30;;;;;;;;;;;13.90;99.90;;;;;;5081358;28;19962;-81
2023/08/20 03:25:59;;;;;;;;;;;13.80;99.90;;;;;;5071600;28;19927;-80
2023/08/20 03:28:24;;;;;;;;;;;13.90;99.90;;;;;;5073424;28;19970;-81
2023/08/20 03:30:50;;;;;;;;;;;14.00;99.90;;;;;;5056422;28;20320;-80
2023/08/20 03:33:16;;;;;;;;;;;13.90;99.90;;;;;;5070369;28;19926;-81
2023/08/20 03:35:42;;;;;;;;;;;13.90;99.90;;;;;;5057313;28;20276;-81
2023/08/20 03:38:08;;;;;;;;;;;13.90;99.90;;;;;;5088132;28;20002;-81
2023/08/20 03:40:33;;;;;;;;;;;13.90;99.90;;;;;;5087424;28;20495;-80
2023/08/20 03:42:59;;;;;;;;;;;13.90;99.90;;;;;;5072843;28;20833;-80
2023/08/20 03:45:25;;;;;;;;;;;13.90;99.90;;;;;;5080844;28;20010;-82
2023/08/20 03:47:51;;;;;;;;;;;14.00;99.90;;;;;;5044384;28;19922;-82
2023/08/20 03:50:16;;;;;;;;;;;14.00;99.90;;;;;;5074151;28;19924;-81
2023/08/20 03:52:42;;;;;;;;;;;14.00;99.90;;;;;;5051262;28;19920;-82
2023/08/20 03:55:08;;;;;;;;;;;14.00;99.90;;;;;;5070856;28;19915;-82
2023/08/20 03:57:33;;;;;;;;;;;14.00;99.90;;;;;;5067776;28;19923;-82
2023/08/20 04:00:00;;;;;;;;;;;14.00;99.90;;;;;;5072313;28;19930;-79
2023/08/20 04:02:25;;;;;;;;;;;13.90;99.90;;;;;;5072798;28;19951;-80
2023/08/20 04:04:53;;;;;;;;;;;13.90;99.90;;;;;;5071323;28;20007;-81
2023/08/20 04:07:18;;;;;;;;;;;14.00;99.90;;;;;;5085945;28;19931;-80
2023/08/20 04:09:44;;;;;;;;;;;14.00;99.90;;;;;;5055532;28;20369;-80
2023/08/20 04:12:09;;;;;;;;;;;14.00;99.90;;;;;;5072634;28;19927;-80
2023/08/20 04:14:35;;;;;;;;;;;14.10;99.90;;;;;;5087259;28;20335;-81
2023/08/20 04:17:00;;;;;;;;;;;14.10;99.90;;;;;;5075072;28;19919;-80
2023/08/20 04:19:26;;;;;;;;;;;14.10;99.90;;;;;;5073635;28;19965;-79
2023/08/20 04:21:51;;;;;;;;;;;14.20;99.90;;;;;;5054623;28;20266;-81
2023/08/20 04:24:17;;;;;;;;;;;14.20;99.90;;;;;;5071864;28;20062;-81
2023/08/20 04:26:43;;;;;;;;;;;14.30;99.90;;;;;;5074025;28;19916;-80
2023/08/20 04:29:09;;;;;;;;;;;14.30;99.90;;;;;;5056204;28;19915;-80
2023/08/20 04:31:35;;;;;;;;;;;14.40;99.90;;;;;;5054582;28;19923;-80
2023/08/20 04:34:00;;;;;;;;;;;14.40;99.90;;;;;;5077625;28;19935;-80
2023/08/20 04:36:26;;;;;;;;;;;14.40;99.90;;;;;;5070791;28;20250;-80
2023/08/20 04:38:51;;;;;;;;;;;14.40;99.90;;;;;;5062722;28;19920;-80
2023/08/20 04:41:17;;;;;;;;;;;14.50;99.90;;;;;;5071194;28;19924;-81
2023/08/20 04:43:42;;;;;;;;;;;14.50;99.90;;;;;;5072757;28;20422;-80
2023/08/20 04:46:08;;;;;;;;;;;14.50;99.90;;;;;;5055932;28;19915;-81
2023/08/20 04:48:33;;;;;;;;;;;14.50;99.90;;;;;;5055092;28;19965;-82
2023/08/20 04:51:00;;;;;;;;;;;14.50;99.90;;;;;;5075419;28;19915;-81
2023/08/20 04:53:26;;;;;;;;;;;14.60;99.90;;;;;;5073442;28;19916;-82
2023/08/20 04:55:51;;;;;;;;;;;14.60;99.90;;;;;;5067530;28;20455;-81
2023/08/20 04:58:17;;;;;;;;;;;14.70;99.90;;;;;;5074666;28;19923;-81
2023/08/20 05:00:43;;;;;;;;;;;14.70;99.90;;;;;;5070910;28;20362;-81
2023/08/20 05:03:09;;;;;;;;;;;14.70;99.90;;;;;;5054922;28;19916;-80
2023/08/20 05:05:34;;;;;;;;;;;14.80;99.90;;;;;;5072501;28;20328;-81
2023/08/20 05:08:00;;;;;;;;;;;14.90;99.90;;;;;;5072453;28;19920;-80
2023/08/20 05:10:25;;;;;;;;;;;15.00;99.90;;;;;;5073137;28;19916;-81
2023/08/20 05:12:51;;;;;;;;;;;15.00;99.90;;;;;;5071018;28;19923;-82
2023/08/20 05:15:16;;;;;;;;;;;15.10;99.90;;;;;;5076537;28;19967;-81
2023/08/20 05:17:42;;;;;;;;;;;15.20;99.90;;;;;;5066562;28;19924;-81
2023/08/20 05:20:09;;;;;;;;;;;15.20;99.90;;;;;;5070195;28;19920;-82
2023/08/20 05:22:34;;;;;;;;;;;15.30;99.90;;;;;;5049175;28;19923;-82
2023/08/20 05:25:00;;;;;;;;;;;15.30;99.90;;;;;;5049654;28;19916;-81
2023/08/20 05:27:25;;;;;;;;;;;15.30;99.90;;;;;;5053955;28;19951;-81
2023/08/20 05:29:51;;;;;;;;;;;15.30;99.90;;;;;;5072178;28;20010;-78
2023/08/20 05:32:16;;;;;;;;;;;15.40;99.90;;;;;;5053738;28;19981;-78
2023/08/20 05:34:42;;;;;;;;;;;15.40;99.90;;;;;;5075122;28;19927;-79
2023/08/20 05:37:08;;;;;;;;;;;15.40;99.90;;;;;;5055475;28;20301;-78
2023/08/20 05:39:38;;;;;;;;;;;15.60;99.90;;;;;;5069058;28;19924;-79
2023/08/20 05:42:04;;;;;;;;;;;15.60;99.90;;;;;;5072930;28;19963;-78
2023/08/20 05:44:29;;;;;;;;;;;15.70;99.90;;;;;;5073811;28;19981;-78
2023/08/20 05:46:55;;;;;;;;;;;15.70;99.90;;;;;;5085792;28;19919;-77
2023/08/20 05:49:20;;;;;;;;;;;15.80;99.90;;;;;;5053371;28;19916;-76
2023/08/20 05:51:46;;;;;;;;;;;15.90;99.90;;;;;;5059529;28;19934;-77
2023/08/20 05:54:11;;;;;;;;;;;15.90;99.90;;;;;;5054929;28;20007;-78
2023/08/20 05:56:37;;;;;;;;;;;15.90;99.90;;;;;;5056387;28;19931;-77
2023/08/20 05:59:03;;;;;;;;;;;15.90;99.90;;;;;;5070615;28;20399;-78
2023/08/20 06:01:29;;;;;;;;;;;16.00;99.90;;;;;;5075194;28;19966;-78
2023/08/20 06:03:54;;;;;;;;;;;16.00;99.90;;;;;;5076592;28;19963;-76
2023/08/20 06:06:20;;;;;;;;;;;16.10;99.90;;;;;;5075982;28;19973;-78
2023/08/20 06:08:46;;;;;;;;;;;16.20;99.90;;;;;;5074405;28;19961;-77
2023/08/20 06:11:11;;;;;;;;;;;16.30;99.90;;;;;;5056535;28;19919;-77
2023/08/20 06:13:37;;;;;;;;;;;16.40;99.90;;;;;;5081004;28;20282;-77
2023/08/20 06:16:03;;;;;;;;;;;16.50;99.90;;;;;;5069265;28;19928;-77
2023/08/20 06:18:28;;;;;;;;;;;16.60;99.90;;;;;;5074783;28;19958;-78
2023/08/20 06:20:54;;;;;;;;;;;16.70;99.90;;;;;;5073316;28;19920;-77
2023/08/20 06:23:19;;;;;;;;;;;16.70;99.90;;;;;;5077436;28;19955;-78
2023/08/20 06:25:45;;;;;;;;;;;16.70;99.90;;;;;;5055536;28;19924;-78
2023/08/20 06:28:11;;;;;;;;;;;16.80;99.90;;;;;;5048941;28;19970;-78
2023/08/20 06:30:37;;;;;;;;;;;17.00;99.90;;;;;;5068262;28;19930;-77
2023/08/20 06:33:02;;;;;;;;;;;17.00;99.90;;;;;;5065371;28;19916;-77
2023/08/20 06:35:28;;;;;;;;;;;17.10;99.90;;;;;;5071859;28;19920;-79
2023/08/20 06:37:54;;;;;;;;;;;17.20;99.90;;;;;;5077753;28;19945;-78
2023/08/20 06:40:19;;;;;;;;;;;17.30;99.90;;;;;;5052240;28;20452;-77
2023/08/20 06:42:45;;;;;;;;;;;17.40;99.90;;;;;;5073328;28;20327;-78
2023/08/20 06:45:10;;;;;;;;;;;17.50;99.90;;;;;;5050363;28;20020;-79
2023/08/20 06:47:36;;;;;;;;;;;17.60;99.90;;;;;;5073784;28;19965;-79
2023/08/20 06:50:02;;;;;;;;;;;17.70;99.90;;;;;;5065098;28;20014;-79
2023/08/20 06:52:27;;;;;;;;;;;17.80;99.90;;;;;;5074794;28;20037;-79
2023/08/20 06:54:53;;;;;;;;;;;18.00;99.90;;;;;;5073242;28;20056;-79
2023/08/20 06:57:19;;;;;;;;;;;18.10;99.90;;;;;;5074161;28;19931;-79
2023/08/20 06:59:44;;;;;;;;;;;18.20;99.90;;;;;;5089017;28;19927;-79
2023/08/20 07:02:10;;;;;;;;;;;18.30;99.90;;;;;;5055248;28;19970;-79
2023/08/20 07:04:36;;;;;;;;;;;18.40;99.90;;;;;;5067685;28;20053;-80
2023/08/20 07:07:01;;;;;;;;;;;18.50;99.90;;;;;;5077486;28;20003;-77
2023/08/20 07:09:27;;;;;;;;;;;18.60;99.90;;;;;;5083277;28;19931;-77
2023/08/20 07:11:52;;;;;;;;;;;18.70;99.90;;;;;;5072637;28;19954;-80
2023/08/20 07:14:18;;;;;;;;;;;18.70;99.90;;;;;;5065510;28;19931;-78
2023/08/20 07:16:43;;;;;;;;;;;18.80;99.90;;;;;;5066763;28;19968;-79
2023/08/20 07:19:09;;;;;;;;;;;18.90;99.90;;;;;;5056994;28;20565;-80
2023/08/20 07:21:34;;;;;;;;;;;19.00;99.90;;;;;;5049560;28;19920;-78
2023/08/20 07:24:00;;;;;;;;;;;19.10;99.90;;;;;;5036031;28;19920;-79
2023/08/20 07:26:26;;;;;;;;;;;19.10;99.90;;;;;;5066361;28;20050;-80
2023/08/20 07:28:58;;;;;;;;;;;19.20;99.90;;;;;;5060174;28;20399;-80
2023/08/20 07:31:23;;;;;;;;;;;19.30;99.90;;;;;;5067108;28;19916;-79
2023/08/20 07:33:49;;;;;;;;;;;19.40;99.90;;;;;;5055351;28;19916;-82
2023/08/20 07:36:15;;;;;;;;;;;19.50;99.90;;;;;;5056819;28;19921;-80
2023/08/20 07:38:42;;;;;;;;;;;19.60;99.90;;;;;;5061933;28;19924;-77
2023/08/20 07:41:08;;;;;;;;;;;19.60;99.90;;;;;;5050940;28;19925;-78
2023/08/20 07:43:34;;;;;;;;;;;19.70;99.90;;;;;;5058002;28;20419;-79
2023/08/20 07:45:59;;;;;;;;;;;19.70;99.90;;;;;;5067490;28;19999;-78
2023/08/20 07:48:25;;;;;;;;;;;19.80;99.90;;;;;;5064142;28;19955;-79
2023/08/20 07:50:50;;;;;;;;;;;19.80;99.90;;;;;;5059558;28;19920;-77
2023/08/20 07:53:16;;;;;;;;;;;19.90;99.90;;;;;;5062385;28;20355;-76
2023/08/20 07:55:41;;;;;;;;;;;19.90;99.90;;;;;;5055821;28;20386;-77
2023/08/20 07:58:07;;;;;;;;;;;20.00;99.90;;;;;;5052864;28;19924;-77
2023/08/20 08:00:32;;;;;;;;;;;20.00;99.90;;;;;;5053517;28;19921;-74
2023/08/20 08:02:58;;;;;;;;;;;20.00;99.90;;;;;;5030192;28;19943;-73
2023/08/20 08:05:23;;;;;;;;;;;20.10;99.90;;;;;;5052470;28;19925;-74
2023/08/20 08:07:49;;;;;;;;;;;20.10;99.90;;;;;;5052099;28;19925;-74
2023/08/20 08:10:14;;;;;;;;;;;20.30;99.90;;;;;;5058941;28;19924;-74
2023/08/20 08:12:40;;;;;;;;;;;20.30;99.90;;;;;;5060171;28;19923;-75
2023/08/20 08:15:06;;;;;;;;;;;20.40;99.90;;;;;;5059985;28;19928;-74
2023/08/20 08:17:31;;;;;;;;;;;20.40;99.90;;;;;;5070101;28;19931;-74
2023/08/20 08:19:58;;;;;;;;;;;20.50;99.90;;;;;;5066077;28;19930;-74
2023/08/20 08:22:23;;;;;;;;;;;20.60;99.90;;;;;;5056837;28;19965;-74
2023/08/20 08:24:50;;;;;;;;;;;20.70;99.90;;;;;;5081150;28;19919;-73
2023/08/20 08:27:16;;;;;;;;;;;20.80;99.90;;;;;;5069581;28;20318;-74
2023/08/20 08:29:42;;;;;;;;;;;20.80;99.90;;;;;;5073988;28;19920;-74
2023/08/20 08:32:07;;;;;;;;;;;20.90;99.90;;;;;;5079876;28;20330;-74
2023/08/20 08:34:33;;;;;;;;;;;21.00;99.90;;;;;;5070955;28;19931;-74
2023/08/20 08:36:58;;;;;;;;;;;21.10;99.90;;;;;;5073688;28;20042;-74
2023/08/20 08:39:24;;;;;;;;;;;21.20;99.90;;;;;;5077426;28;19920;-73
2023/08/20 08:41:50;;;;;;;;;;;21.20;99.90;;;;;;5089483;28;20306;-73
2023/08/20 08:44:16;;;;;;;;;;;21.30;99.90;;;;;;5085510;28;19970;-73
2023/08/20 08:46:42;;;;;;;;;;;21.30;99.90;;;;;;5070641;28;20021;-73
2023/08/20 08:49:08;;;;;;;;;;;21.40;99.90;;;;;;5079270;28;19924;-74
2023/08/20 08:51:35;;;;;;;;;;;21.40;99.90;;;;;;5081086;28;19920;-72
2023/08/20 08:54:02;;;;;;;;;;;21.50;99.90;;;;;;5069886;28;19923;-73
2023/08/20 08:56:27;;;;;;;;;;;21.60;99.90;;;;;;5087128;28;20330;-73
2023/08/20 08:58:53;;;;;;;;;;;21.70;99.90;;;;;;5076596;28;19916;-75
2023/08/20 09:01:19;;;;;;;;;;;21.70;99.90;;;;;;5071448;28;20351;-73
2023/08/20 09:03:44;;;;;;;;;;;21.80;99.90;;;;;;5075130;28;19975;-74
2023/08/20 09:06:10;;;;;;;;;;;21.90;99.90;;;;;;5075373;28;19920;-74
2023/08/20 09:08:36;;;;;;;;;;;21.90;99.90;;;;;;5074190;28;19973;-74
2023/08/20 09:11:02;;;;;;;;;;;22.00;99.90;;;;;;5069441;28;19927;-74
2023/08/20 09:13:38;;;;;;;;;;;22.10;99.90;;;;;;5063973;28;19946;-74
2023/08/20 09:16:05;;;;;;;;;;;22.20;99.90;;;;;;5081166;28;20332;-74
2023/08/20 09:18:31;;;;;;;;;;;22.30;99.90;;;;;;5069006;28;19923;-74
2023/08/20 09:20:57;;;;;;;;;;;22.40;99.90;;;;;;5079944;28;19923;-74
2023/08/20 09:23:22;;;;;;;;;;;22.50;99.90;;;;;;5074031;28;19942;-74
2023/08/20 09:25:49;;;;;;;;;;;22.50;99.90;;;;;;5074195;28;19942;-73
2023/08/20 09:28:14;;;;;;;;;;;22.60;99.90;;;;;;5058740;28;19916;-76
2023/08/20 09:30:41;;;;;;;;;;;22.70;99.90;;;;;;5073851;28;19998;-74
2023/08/20 09:33:06;;;;;;;;;;;22.70;99.90;;;;;;5083997;28;19927;-74
2023/08/20 09:35:32;;;;;;;;;;;22.60;99.90;;;;;;5081347;28;19920;-74
2023/08/20 09:38:01;;;;;;;;;;;22.60;99.90;;;;;;5083023;28;19924;-74
2023/08/20 09:40:27;;;;;;;;;;;22.60;99.90;;;;;;5079235;28;19915;-73
2023/08/20 09:42:54;;;;;;;;;;;22.70;99.90;;;;;;5072268;28;19923;-74
2023/08/20 09:45:20;;;;;;;;;;;22.80;99.90;;;;;;5070441;28;19923;-74
2023/08/20 09:47:48;;;;;;;;;;;22.90;99.90;;;;;;5067015;28;20360;-74
2023/08/20 09:50:13;;;;;;;;;;;23.00;99.90;;;;;;5076046;28;19920;-74
2023/08/20 09:52:40;;;;;;;;;;;23.20;99.90;;;;;;5070722;28;19930;-74
2023/08/20 09:55:10;;;;;;;;;;;23.20;99.90;;;;;;5071753;28;20222;-74
2023/08/20 09:57:37;;;;;;;;;;;23.30;99.90;;;;;;5075964;28;20721;-74
2023/08/20 10:00:11;;;;;;;;;;;23.30;99.90;;;;;;5076374;28;20360;-74
2023/08/20 10:02:37;;;;;;;;;;;23.20;99.90;;;;;;5083715;28;19924;-74
2023/08/20 10:05:05;;;;;;;;;;;23.10;99.90;;;;;;5077037;28;19920;-74
2023/08/20 10:07:33;;;;;;;;;;;23.10;99.90;;;;;;5074315;28;19927;-75
2023/08/20 10:10:01;;;;;;;;;;;23.00;99.90;;;;;;5071600;28;20010;-74
2023/08/20 10:12:27;;;;;;;;;;;23.00;99.90;;;;;;5087857;28;19931;-74
2023/08/20 10:14:58;;;;;;;;;;;23.20;99.90;;;;;;5055260;28;19920;-74
2023/08/20 10:17:24;;;;;;;;;;;23.30;99.90;;;;;;5073540;28;19973;-74
2023/08/20 10:19:53;;;;;;;;;;;23.30;99.90;;;;;;5096532;28;19928;-75
2023/08/20 10:22:19;;;;;;;;;;;23.40;99.90;;;;;;5078614;28;19920;-74
2023/08/20 10:24:52;;;;;;;;;;;23.50;99.90;;;;;;5081156;28;19920;-74
2023/08/20 10:27:28;;;;;;;;;;;23.60;99.90;;;;;;5071574;28;20444;-75
2023/08/20 10:29:54;;;;;;;;;;;23.70;99.90;;;;;;5077445;28;19965;-74
2023/08/20 10:32:20;;;;;;;;;;;23.70;99.90;;;;;;5079784;28;19927;-74
2023/08/20 10:34:50;;;;;;;;;;;23.70;99.90;;;;;;5072380;28;20434;-74
2023/08/20 10:37:15;;;;;;;;;;;23.70;99.90;;;;;;5071787;28;19920;-75
2023/08/20 10:39:46;;;;;;;;;;;23.90;99.90;;;;;;5071727;28;19926;-74
2023/08/20 10:42:15;;;;;;;;;;;23.80;99.90;;;;;;5074690;28;19920;-75
2023/08/20 10:45:00;;;;;;;;;;;23.90;99.90;;;;;;5074527;28;20009;-74
2023/08/20 10:47:34;;;;;;;;;;;24.00;99.90;;;;;;5091299;28;19924;-74
2023/08/20 10:50:00;;;;;;;;;;;24.10;99.90;;;;;;5065564;28;19920;-74
2023/08/20 10:52:25;;;;;;;;;;;24.30;99.90;;;;;;5065676;28;20010;-74
2023/08/20 10:54:53;;;;;;;;;;;24.40;99.90;;;;;;5072835;28;20113;-74
2023/08/20 10:57:21;;;;;;;;;;;24.30;99.90;;;;;;5065664;28;19975;-74
2023/08/20 11:00:01;;;;;;;;;;;24.30;99.90;;;;;;5075654;28;19962;-73
2023/08/20 11:02:27;;;;;;;;;;;24.30;99.90;;;;;;5068680;28;20025;-75
2023/08/20 11:04:53;;;;;;;;;;;24.20;99.90;;;;;;5076778;28;20021;-74
2023/08/20 11:07:19;;;;;;;;;;;24.20;99.90;;;;;;5078910;28;19919;-75
2023/08/20 11:09:46;;;;;;;;;;;24.30;99.90;;;;;;5056179;28;19919;-75
2023/08/20 11:12:15;;;;;;;;;;;24.40;99.90;;;;;;5073212;28;19920;-74
2023/08/20 11:14:40;;;;;;;;;;;24.50;99.90;;;;;;5075881;28;19936;-74
2023/08/20 11:17:07;;;;;;;;;;;24.60;99.90;;;;;;5069964;28;19935;-74
2023/08/20 11:19:33;;;;;;;;;;;24.50;99.90;;;;;;5079799;28;20110;-74
2023/08/20 11:21:59;;;;;;;;;;;24.40;99.90;;;;;;5067192;28;20007;-74
2023/08/20 11:24:28;;;;;;;;;;;24.40;99.90;;;;;;5083561;28;19927;-75
2023/08/20 11:26:55;;;;;;;;;;;24.40;99.90;;;;;;5072118;28;19927;-75
2023/08/20 11:29:21;;;;;;;;;;;24.40;99.90;;;;;;5071036;28;19919;-73
2023/08/20 11:31:49;;;;;;;;;;;24.40;99.90;;;;;;5072863;28;19927;-74
2023/08/20 11:34:15;;;;;;;;;;;24.30;99.90;;;;;;5068678;28;20339;-74
2023/08/20 11:36:41;;;;;;;;;;;24.40;99.90;;;;;;5087297;28;19921;-73
2023/08/20 11:39:07;;;;;;;;;;;24.50;99.90;;;;;;5069529;28;19934;-74
2023/08/20 11:41:35;;;;;;;;;;;24.50;99.90;;;;;;5067866;28;19919;-74
2023/08/20 11:44:01;;;;;;;;;;;24.70;99.90;;;;;;5070259;28;19926;-74
2023/08/20 11:46:26;;;;;;;;;;;24.90;99.90;;;;;;5070482;28;19915;-73
2023/08/20 11:49:00;;;;;;;;;;;24.80;99.90;;;;;;5057597;28;19919;-73
2023/08/20 11:51:25;;;;;;;;;;;24.70;99.90;;;;;;5067035;28;19950;-73
2023/08/20 11:53:51;;;;;;;;;;;24.50;99.90;;;;;;5067259;28;20365;-74
2023/08/20 11:56:16;;;;;;;;;;;24.50;99.90;;;;;;5069686;28;19966;-74
2023/08/20 11:58:42;;;;;;;;;;;24.50;99.90;;;;;;5057933;28;19927;-74
2023/08/20 12:01:08;;;;;;;;;;;24.60;99.90;;;;;;5075739;28;20052;-74
2023/08/20 12:03:37;;;;;;;;;;;24.60;99.90;;;;;;5079695;28;19924;-74
2023/08/20 12:06:23;;;;;;;;;;;24.70;99.90;;;;;;5091367;28;19919;-74
2023/08/20 12:08:48;;;;;;;;;;;24.90;99.90;;;;;;5070197;28;20641;-75
2023/08/20 12:11:14;;;;;;;;;;;25.10;99.90;;;;;;5080324;28;19920;-74
2023/08/20 12:13:40;;;;;;;;;;;25.30;99.90;;;;;;5085637;28;19924;-74
2023/08/20 12:16:06;;;;;;;;;;;25.60;99.90;;;;;;5065569;28;20887;-74
2023/08/20 12:18:32;;;;;;;;;;;25.70;99.90;;;;;;5072742;28;19951;-74
2023/08/20 12:20:57;;;;;;;;;;;25.60;99.90;;;;;;5076151;28;20002;-74
2023/08/20 12:23:23;;;;;;;;;;;25.70;99.90;;;;;;5068768;28;20430;-73
2023/08/20 12:25:52;;;;;;;;;;;25.80;99.90;;;;;;5082908;28;20007;-74
2023/08/20 12:28:17;;;;;;;;;;;25.80;99.90;;;;;;5066250;28;19924;-74
2023/08/20 12:30:43;;;;;;;;;;;25.70;99.90;;;;;;5071572;28;20010;-74
2023/08/20 12:33:10;;;;;;;;;;;25.80;99.90;;;;;;5069986;28;19916;-73
2023/08/20 12:35:36;;;;;;;;;;;26.00;99.90;;;;;;5070659;28;20621;-73
2023/08/20 12:38:02;;;;;;;;;;;26.10;99.90;;;;;;5070228;28;19924;-74
2023/08/20 12:40:28;;;;;;;;;;;26.10;99.90;;;;;;5070436;28;19982;-73
2023/08/20 12:42:54;;;;;;;;;;;26.20;99.90;;;;;;5070376;28;19951;-74
2023/08/20 12:45:20;;;;;;;;;;;26.30;99.90;;;;;;5070457;28;19943;-74
2023/08/20 12:47:45;;;;;;;;;;;26.30;99.90;;;;;;5071208;28;19973;-73
2023/08/20 12:50:13;;;;;;;;;;;26.30;99.90;;;;;;5069984;28;20412;-74
2023/08/20 12:52:38;;;;;;;;;;;26.40;99.90;;;;;;5070460;28;19932;-74
2023/08/20 12:55:04;;;;;;;;;;;26.40;99.90;;;;;;5088047;28;19983;-74
2023/08/20 12:57:30;;;;;;;;;;;26.50;99.90;;;;;;5066572;28;19928;-74
2023/08/20 12:59:55;;;;;;;;;;;26.50;99.90;;;;;;5070409;28;19924;-73
2023/08/20 13:02:21;;;;;;;;;;;26.10;99.90;;;;;;5070627;28;20006;-74
2023/08/20 13:04:47;;;;;;;;;;;25.90;99.90;;;;;;5069948;28;20270;-73
2023/08/20 13:07:13;;;;;;;;;;;25.90;99.90;;;;;;5068243;28;19927;-73
2023/08/20 13:09:39;;;;;;;;;;;26.10;99.90;;;;;;5070469;28;19920;-74
2023/08/20 13:12:05;;;;;;;;;;;26.30;99.90;;;;;;5087850;28;19920;-75
2023/08/20 13:14:31;;;;;;;;;;;26.20;99.90;;;;;;5069730;28;19923;-73
2023/08/20 13:16:56;;;;;;;;;;;26.10;99.90;;;;;;5074210;28;20520;-74
2023/08/20 13:19:23;;;;;;;;;;;26.30;99.90;;;;;;5071587;28;19924;-74
2023/08/20 13:21:49;;;;;;;;;;;26.70;99.90;;;;;;5057727;28;20763;-73
2023/08/20 13:24:14;;;;;;;;;;;27.00;99.90;;;;;;5070082;28;19916;-74
2023/08/20 13:26:40;;;;;;;;;;;27.50;99.90;;;;;;5071754;28;20265;-74
2023/08/20 13:29:05;;;;;;;;;;;27.70;99.90;;;;;;5070702;28;20444;-74
2023/08/20 13:31:31;;;;;;;;;;;27.30;99.50;;;;;;5086959;28;19920;-74
2023/08/20 13:33:57;;;;;;;;;;;27.00;99.90;;;;;;5070619;28;19927;-74
2023/08/20 13:36:22;;;;;;;;;;;27.00;99.40;;;;;;5071965;28;19930;-74
2023/08/20 13:38:48;;;;;;;;;;;27.10;99.50;;;;;;5054997;28;19959;-74
2023/08/20 13:41:13;;;;;;;;;;;27.40;99.90;;;;;;5086626;28;20007;-73
2023/08/20 13:43:39;;;;;;;;;;;27.40;99.20;;;;;;5070020;28;19916;-73
2023/08/20 13:46:04;;;;;;;;;;;27.10;98.10;;;;;;5082710;28;20014;-73
2023/08/20 13:48:30;;;;;;;;;;;27.20;99.00;;;;;;5089070;28;20372;-73
2023/08/20 13:50:55;;;;;;;;;;;27.50;99.00;;;;;;5070653;28;19947;-74
2023/08/20 13:53:21;;;;;;;;;;;28.00;99.40;;;;;;5070604;28;19916;-74
2023/08/20 13:55:46;;;;;;;;;;;28.60;99.90;;;;;;5070454;28;19968;-74
2023/08/20 13:58:12;;;;;;;;;;;29.10;98.80;;;;;;5070561;28;19920;-75
2023/08/20 14:00:38;;;;;;;;;;;29.30;97.20;;;;;;5070026;28;19976;-74
2023/08/20 14:03:04;;;;;;;;;;;29.30;96.80;;;;;;5070447;28;20347;-73
2023/08/20 14:05:29;;;;;;;;;;;29.40;96.90;;;;;;5070708;28;19920;-74
2023/08/20 14:07:55;;;;;;;;;;;29.60;97.00;;;;;;5088353;28;19920;-74
2023/08/20 14:10:20;;;;;;;;;;;29.80;96.50;;;;;;5073376;28;19924;-74